createdAt,value
2018-12-16T00:01:32.473Z,16.63
2018-12-16T00:03:59.941Z,16.53
2018-12-16T00:06:27.513Z,18.90
2018-12-16T00:08:54.978Z,14.57
2018-12-16T00:11:22.438Z,15.03
2018-12-16T00:13:49.913Z,15.87
2018-12-16T00:16:17.381Z,18.65
2018-12-16T00:18:45.616Z,16.90
2018-12-16T00:21:13.210Z,19.23
2018-12-16T00:23:40.761Z,16.50
2018-12-16T00:26:08.237Z,16.12
2018-12-16T00:28:35.700Z,18.00
2018-12-16T00:31:04.953Z,13.13
2018-12-16T00:33:32.523Z,16.67
2018-12-16T00:35:59.977Z,18.57
2018-12-16T00:38:27.449Z,16.33
2018-12-16T00:40:54.925Z,17.47
2018-12-16T00:43:22.403Z,16.67
2018-12-16T00:45:49.860Z,18.33
2018-12-16T00:48:17.322Z,14.83
2018-12-16T00:50:44.894Z,18.03
2018-12-16T00:53:12.370Z,17.37
2018-12-16T00:55:40.609Z,19.60
2018-12-16T00:58:08.064Z,16.47
2018-12-16T01:00:35.562Z,16.90
2018-12-16T01:03:04.725Z,17.27
2018-12-16T01:05:32.198Z,15.00
2018-12-16T01:07:59.669Z,18.40
2018-12-16T01:10:27.241Z,15.83
2018-12-16T01:12:54.754Z,15.10
2018-12-16T01:15:22.225Z,14.77
2018-12-16T01:17:49.728Z,14.23
2018-12-16T01:20:17.197Z,14.07
2018-12-16T01:22:44.656Z,19.20
2018-12-16T01:25:12.141Z,19.10
2018-12-16T01:27:40.376Z,15.80
2018-12-16T01:30:07.849Z,17.37
2018-12-16T01:32:35.317Z,17.73
2018-12-16T01:35:05.298Z,16.70
2018-12-16T01:37:32.791Z,18.50
2018-12-16T01:40:00.279Z,17.43
2018-12-16T01:42:27.745Z,16.50
2018-12-16T01:44:56.010Z,21.57
2018-12-16T01:47:23.470Z,14.20
2018-12-16T01:49:50.924Z,16.23
2018-12-16T01:52:18.388Z,18.07
2018-12-16T01:54:47.367Z,15.90
2018-12-16T01:57:14.829Z,18.47
2018-12-16T01:59:42.313Z,21.17
2018-12-16T02:02:11.292Z,15.00
2018-12-16T02:04:38.747Z,18.83
2018-12-16T02:07:06.313Z,16.23
2018-12-16T02:09:33.883Z,16.67
2018-12-16T02:12:01.371Z,18.40
2018-12-16T02:14:28.844Z,16.37
2018-12-16T02:16:57.431Z,15.20
2018-12-16T02:19:25.679Z,18.03
2018-12-16T02:21:53.149Z,14.83
2018-12-16T02:24:20.618Z,17.30
2018-12-16T02:26:48.091Z,18.13
2018-12-16T02:29:16.309Z,17.50
2018-12-16T02:31:43.796Z,16.53
2018-12-16T02:34:11.243Z,15.57
2018-12-16T02:36:38.820Z,16.80
2018-12-16T02:39:06.280Z,16.23
2018-12-16T02:41:33.729Z,15.83
2018-12-16T02:44:01.201Z,19.63
2018-12-16T02:46:28.675Z,16.73
2018-12-16T02:48:56.247Z,19.97
2018-12-16T02:51:23.789Z,14.73
2018-12-16T02:53:51.192Z,16.20
2018-12-16T02:56:19.418Z,15.53
2018-12-16T02:58:46.909Z,14.37
2018-12-16T03:01:14.368Z,18.23
2018-12-16T03:03:41.834Z,15.27
2018-12-16T03:06:09.279Z,17.17
2018-12-16T03:08:36.746Z,17.23
2018-12-16T03:11:04.216Z,18.47
2018-12-16T03:13:31.727Z,18.53
2018-12-16T03:15:59.199Z,17.67
2018-12-16T03:18:26.689Z,15.63
2018-12-16T03:20:55.107Z,15.87
2018-12-16T03:23:23.370Z,17.35
2018-12-16T03:25:50.845Z,16.77
2018-12-16T03:28:19.105Z,18.60
2018-12-16T03:30:46.573Z,18.80
2018-12-16T03:33:14.023Z,18.57
2018-12-16T03:35:41.496Z,19.07
2018-12-16T03:38:09.051Z,15.10
2018-12-16T03:40:36.535Z,18.00
2018-12-16T03:43:04.770Z,18.83
2018-12-16T03:45:32.253Z,17.33
2018-12-16T03:47:59.722Z,17.90
2018-12-16T03:50:27.203Z,18.27
2018-12-16T03:52:54.666Z,18.93
2018-12-16T03:55:22.898Z,17.00
2018-12-16T03:57:50.361Z,19.90
2018-12-16T04:00:18.008Z,16.10
2018-12-16T04:02:47.264Z,18.70
2018-12-16T04:05:15.548Z,17.67
2018-12-16T04:07:42.995Z,18.67
2018-12-16T04:10:10.457Z,16.73
2018-12-16T04:12:37.931Z,20.53
2018-12-16T04:15:05.396Z,18.27
2018-12-16T04:17:32.871Z,18.87
2018-12-16T04:20:01.122Z,18.53
2018-12-16T04:22:28.588Z,17.57
2018-12-16T04:24:56.204Z,16.53
2018-12-16T04:27:24.428Z,18.13
2018-12-16T04:29:52.001Z,15.93
2018-12-16T04:32:19.470Z,16.63
2018-12-16T04:34:46.928Z,16.50
2018-12-16T04:37:15.162Z,16.90
2018-12-16T04:39:42.630Z,16.60
2018-12-16T04:42:10.088Z,17.37
2018-12-16T04:44:37.557Z,19.63
2018-12-16T04:47:05.013Z,17.97
2018-12-16T04:49:32.498Z,18.20
2018-12-16T04:52:00.048Z,18.03
2018-12-16T04:54:27.541Z,17.20
2018-12-16T04:56:55.007Z,17.03
2018-12-16T04:59:23.263Z,18.27
2018-12-16T05:01:50.825Z,17.93
2018-12-16T05:04:18.395Z,19.97
2018-12-16T05:06:45.959Z,19.63
2018-12-16T05:09:13.513Z,21.73
2018-12-16T05:11:40.983Z,16.70
2018-12-16T05:14:08.440Z,18.23
2018-12-16T05:16:35.923Z,19.07
2018-12-16T05:19:03.891Z,20.15
2018-12-16T05:21:32.113Z,19.20
2018-12-16T05:23:59.622Z,21.03
2018-12-16T05:26:27.186Z,20.37
2018-12-16T05:28:55.423Z,20.40
2018-12-16T05:31:22.889Z,19.23
2018-12-16T05:33:50.358Z,19.80
2018-12-16T05:36:17.828Z,19.57
2018-12-16T05:38:45.290Z,16.17
2018-12-16T05:41:12.755Z,18.30
2018-12-16T05:43:40.446Z,18.63
2018-12-16T05:46:08.724Z,20.60
2018-12-16T05:48:37.721Z,19.70
2018-12-16T05:51:05.192Z,18.13
2018-12-16T05:53:32.740Z,14.20
2018-12-16T05:56:00.300Z,19.93
2018-12-16T05:58:28.073Z,18.33
2018-12-16T06:00:55.626Z,17.77
2018-12-16T06:03:23.946Z,21.57
2018-12-16T06:05:52.280Z,20.33
2018-12-16T06:08:19.758Z,20.30
2018-12-16T06:10:47.237Z,20.23
2018-12-16T06:13:15.468Z,19.97
2018-12-16T06:15:42.932Z,22.70
2018-12-16T06:18:10.394Z,15.47
2018-12-16T06:20:37.865Z,14.97
2018-12-16T06:23:06.085Z,16.57
2018-12-16T06:25:34.317Z,18.83
2018-12-16T06:28:01.774Z,16.93
2018-12-16T06:30:29.281Z,17.63
2018-12-16T06:32:56.822Z,23.77
2018-12-16T06:35:24.386Z,22.40
2018-12-16T06:37:51.938Z,21.03
2018-12-16T06:40:19.395Z,19.40
2018-12-16T06:42:46.979Z,20.67
2018-12-16T06:45:14.436Z,18.83
2018-12-16T06:47:41.915Z,16.23
2018-12-16T06:50:09.368Z,20.37
2018-12-16T06:52:36.928Z,20.23
2018-12-16T06:55:04.495Z,18.20
2018-12-16T06:57:31.969Z,22.13
2018-12-16T06:59:59.425Z,19.70
2018-12-16T07:02:26.972Z,22.53
2018-12-16T07:04:54.545Z,19.93
2018-12-16T07:07:22.010Z,21.77
2018-12-16T07:09:50.501Z,23.83
2018-12-16T07:12:17.956Z,21.50
2018-12-16T07:14:45.516Z,22.73
2018-12-16T07:17:13.106Z,17.00
2018-12-16T07:19:40.564Z,21.07
2018-12-16T07:22:08.825Z,21.63
2018-12-16T07:24:36.290Z,21.47
2018-12-16T07:27:03.824Z,22.13
2018-12-16T07:29:31.298Z,21.03
2018-12-16T07:31:58.804Z,24.63
2018-12-16T07:34:26.259Z,21.60
2018-12-16T07:36:54.496Z,29.80
2018-12-16T07:39:21.959Z,21.73
2018-12-16T07:41:49.518Z,20.37
2018-12-16T07:44:18.427Z,22.77
2018-12-16T07:46:45.990Z,18.93
2018-12-16T07:49:13.469Z,24.17
2018-12-16T07:51:40.960Z,24.03
2018-12-16T07:54:16.094Z,24.73
2018-12-16T07:56:38.700Z,23.97
2018-12-16T07:59:06.168Z,24.20
2018-12-16T08:01:33.649Z,27.30
2018-12-16T08:04:01.187Z,25.97
2018-12-16T08:06:28.662Z,25.73
2018-12-16T08:08:56.122Z,22.33
2018-12-16T08:11:23.577Z,20.50
2018-12-16T08:13:51.149Z,21.63
2018-12-16T08:16:18.712Z,19.67
2018-12-16T08:18:46.178Z,20.23
2018-12-16T08:21:15.145Z,26.00
2018-12-16T08:23:42.619Z,23.30
2018-12-16T08:26:10.088Z,23.67
2018-12-16T08:28:37.656Z,30.40
2018-12-16T08:31:05.876Z,24.87
2018-12-16T08:33:33.340Z,22.73
2018-12-16T08:36:00.853Z,19.23
2018-12-16T08:38:28.311Z,18.77
2018-12-16T08:40:55.780Z,22.90
2018-12-16T08:43:23.249Z,23.10
2018-12-16T08:45:51.471Z,24.80
2018-12-16T08:48:18.941Z,21.57
2018-12-16T08:50:46.416Z,23.83
2018-12-16T08:53:13.894Z,23.53
2018-12-16T08:55:41.361Z,26.23
2018-12-16T08:58:08.823Z,19.40
2018-12-16T09:00:36.300Z,28.90
2018-12-16T09:03:03.767Z,23.73
2018-12-16T09:05:32.733Z,27.50
2018-12-16T09:08:00.210Z,26.10
2018-12-16T09:10:33.935Z,24.23
2018-12-16T09:12:55.916Z,20.03
2018-12-16T09:15:23.415Z,26.90
2018-12-16T09:17:50.875Z,24.93
2018-12-16T09:20:18.496Z,24.80
2018-12-16T09:22:45.953Z,28.70
2018-12-16T09:25:13.409Z,25.33
2018-12-16T09:27:41.036Z,25.03
2018-12-16T09:30:08.499Z,27.13
2018-12-16T09:32:35.961Z,26.83
2018-12-16T09:35:04.746Z,44.73
2018-12-16T09:37:32.315Z,30.90
2018-12-16T09:39:59.794Z,28.03
2018-12-16T09:42:28.024Z,29.00
2018-12-16T09:44:55.494Z,29.50
2018-12-16T09:47:22.964Z,28.63
2018-12-16T09:49:50.542Z,28.07
2018-12-16T09:52:18.005Z,23.42
2018-12-16T09:54:45.487Z,26.70
2018-12-16T09:57:13.718Z,26.20
2018-12-16T09:59:41.190Z,25.40
2018-12-16T10:02:08.651Z,29.37
2018-12-16T10:04:36.096Z,19.03
2018-12-16T10:07:03.775Z,25.58
2018-12-16T10:09:31.249Z,43.53
2018-12-16T10:11:58.711Z,34.00
2018-12-16T10:14:26.385Z,21.53
2018-12-16T10:16:53.844Z,23.27
2018-12-16T10:19:21.416Z,25.73
2018-12-16T10:21:48.901Z,21.93
2018-12-16T10:24:17.123Z,19.67
2018-12-16T10:26:45.991Z,21.70
2018-12-16T10:29:12.105Z,23.45
2018-12-16T10:31:40.351Z,25.40
2018-12-16T10:34:07.814Z,21.47
2018-12-16T10:36:36.094Z,18.03
2018-12-16T10:39:04.436Z,20.83
2018-12-16T10:41:31.905Z,19.47
2018-12-16T10:43:59.394Z,18.27
2018-12-16T10:46:26.948Z,21.90
2018-12-16T10:48:54.426Z,19.87
2018-12-16T10:51:21.875Z,21.77
2018-12-16T10:53:49.451Z,16.40
2018-12-16T10:56:17.005Z,20.77
2018-12-16T10:58:44.566Z,24.53
2018-12-16T11:04:05.271Z,40.28
2018-12-16T11:06:32.732Z,23.67
2018-12-16T11:09:00.216Z,25.70
2018-12-16T11:11:27.778Z,22.50
2018-12-16T11:13:55.348Z,22.17
2018-12-16T11:16:22.818Z,25.33
2018-12-16T11:18:50.276Z,20.63
2018-12-16T11:21:17.743Z,21.87
2018-12-16T11:23:45.210Z,19.23
2018-12-16T11:26:13.440Z,22.03
2018-12-16T11:28:40.921Z,18.47
2018-12-16T11:31:08.390Z,16.10
2018-12-16T11:33:35.889Z,17.00
2018-12-16T11:36:04.611Z,24.20
2018-12-16T11:38:32.096Z,18.50
2018-12-16T11:40:59.569Z,15.83
2018-12-16T11:43:27.027Z,19.70
2018-12-16T11:45:54.473Z,15.30
2018-12-16T11:48:22.043Z,18.53
2018-12-16T11:50:49.516Z,15.83
2018-12-16T11:53:17.079Z,16.20
2018-12-16T11:55:44.646Z,14.53
2018-12-16T11:58:12.882Z,17.03
2018-12-16T12:00:40.337Z,15.53
2018-12-16T12:03:07.801Z,12.63
2018-12-16T12:05:35.273Z,14.67
2018-12-16T12:08:03.650Z,14.03
2018-12-16T12:10:31.112Z,11.73
2018-12-16T12:12:58.568Z,13.33
2018-12-16T12:15:26.028Z,11.80
2018-12-16T12:17:53.533Z,13.27
2018-12-16T12:20:21.010Z,14.17
2018-12-16T12:22:48.481Z,10.27
2018-12-16T12:25:19.746Z,14.17
2018-12-16T12:27:43.599Z,11.20
2018-12-16T12:30:11.157Z,11.43
2018-12-16T12:32:38.610Z,10.70
2018-12-16T12:35:06.080Z,12.57
2018-12-16T12:37:35.227Z,10.23
2018-12-16T12:40:01.116Z,12.50
2018-12-16T12:42:28.662Z,11.87
2018-12-16T12:44:56.107Z,10.83
2018-12-16T12:47:23.574Z,10.13
2018-12-16T12:49:51.104Z,11.77
2018-12-16T12:52:18.625Z,11.67
2018-12-16T12:54:46.086Z,10.97
2018-12-16T12:57:15.063Z,12.07
2018-12-16T12:59:42.547Z,12.23
2018-12-16T13:02:10.006Z,13.60
2018-12-16T13:04:38.241Z,14.00
2018-12-16T13:07:05.701Z,10.03
2018-12-16T13:09:33.207Z,12.40
2018-12-16T13:12:00.870Z,13.97
2018-12-16T13:14:28.333Z,12.83
2018-12-16T13:16:55.790Z,15.77
2018-12-16T13:19:23.247Z,12.47
2018-12-16T13:21:50.705Z,12.83
2018-12-16T13:24:18.179Z,15.87
2018-12-16T13:26:45.629Z,16.47
2018-12-16T13:29:13.105Z,15.47
2018-12-16T13:31:40.559Z,16.77
2018-12-16T13:34:08.146Z,13.90
2018-12-16T13:36:36.373Z,15.27
2018-12-16T13:39:03.821Z,14.53
2018-12-16T13:41:31.285Z,16.20
2018-12-16T13:43:58.752Z,15.80
2018-12-16T13:46:26.252Z,18.67
2018-12-16T13:48:53.704Z,15.97
2018-12-16T13:51:21.187Z,15.63
2018-12-16T13:53:48.649Z,14.00
2018-12-16T13:56:16.119Z,16.87
2018-12-16T13:58:43.573Z,16.93
2018-12-16T14:01:11.128Z,16.53
2018-12-16T14:03:38.590Z,17.67
2018-12-16T14:06:06.054Z,16.50
2018-12-16T14:08:33.517Z,13.73
2018-12-16T14:11:01.009Z,15.63
2018-12-16T14:13:29.244Z,19.63
2018-12-16T14:15:56.698Z,18.50
2018-12-16T14:18:24.277Z,18.00
2018-12-16T14:20:51.725Z,15.73
2018-12-16T14:23:19.194Z,13.27
2018-12-16T14:25:48.095Z,17.80
2018-12-16T14:28:14.238Z,17.73
2018-12-16T14:30:41.697Z,19.30
2018-12-16T14:33:09.156Z,17.27
2018-12-16T14:35:37.380Z,17.00
2018-12-16T14:38:04.862Z,20.50
2018-12-16T14:40:32.329Z,18.37
2018-12-16T14:42:59.773Z,15.27
2018-12-16T14:45:27.235Z,15.50
2018-12-16T14:47:54.942Z,18.10
2018-12-16T14:50:22.393Z,17.37
2018-12-16T14:52:49.883Z,15.20
2018-12-16T14:55:18.864Z,16.47
2018-12-16T14:57:46.323Z,15.07
2018-12-16T15:00:13.792Z,14.43
2018-12-16T15:02:41.359Z,16.73
2018-12-16T15:05:09.837Z,12.53
2018-12-16T15:07:38.048Z,15.27
2018-12-16T15:10:06.273Z,17.57
2018-12-16T15:12:33.740Z,14.67
2018-12-16T15:15:01.207Z,14.93
2018-12-16T15:17:28.675Z,13.87
2018-12-16T15:19:56.244Z,14.37
2018-12-16T15:22:23.698Z,16.97
2018-12-16T15:24:51.243Z,11.67
2018-12-16T15:27:18.702Z,16.27
2018-12-16T15:29:46.192Z,15.70
2018-12-16T15:32:13.651Z,12.33
2018-12-16T15:34:41.438Z,14.67
2018-12-16T15:37:08.691Z,12.33
2018-12-16T15:39:36.249Z,13.03
2018-12-16T15:42:04.626Z,14.07
2018-12-16T15:44:32.093Z,15.33
2018-12-16T15:46:59.646Z,13.63
2018-12-16T15:49:27.115Z,13.63
2018-12-16T15:51:54.587Z,14.37
2018-12-16T15:54:22.139Z,14.23
2018-12-16T15:56:49.584Z,15.87
2018-12-16T15:59:17.059Z,18.13
2018-12-16T16:01:44.626Z,16.63
2018-12-16T16:04:12.084Z,21.00
2018-12-16T16:06:39.652Z,16.63
2018-12-16T16:09:07.228Z,13.53
2018-12-16T16:11:34.757Z,16.70
2018-12-16T16:14:02.240Z,16.27
2018-12-16T16:16:29.710Z,12.13
2018-12-16T16:18:57.165Z,17.87
2018-12-16T16:21:24.624Z,17.80
2018-12-16T16:23:52.290Z,14.50
2018-12-16T16:26:19.855Z,15.63
2018-12-16T16:28:47.325Z,16.47
2018-12-16T16:31:14.791Z,17.60
2018-12-16T16:33:42.239Z,15.00
2018-12-16T16:36:09.802Z,17.47
2018-12-16T16:38:37.277Z,18.10
2018-12-16T16:41:04.744Z,12.80
2018-12-16T16:43:32.205Z,14.50
2018-12-16T16:45:59.667Z,17.20
2018-12-16T16:48:28.656Z,19.70
2018-12-16T16:50:56.227Z,15.83
2018-12-16T16:53:23.761Z,18.27
2018-12-16T16:55:51.249Z,18.13
2018-12-16T16:58:19.345Z,18.87
2018-12-16T17:00:47.576Z,22.47
2018-12-16T17:03:15.047Z,18.73
2018-12-16T17:05:42.613Z,18.47
2018-12-16T17:08:10.067Z,19.47
2018-12-16T17:10:37.660Z,18.90
2018-12-16T17:13:05.219Z,20.87
2018-12-16T17:15:32.679Z,21.43
2018-12-16T17:18:00.352Z,19.93
2018-12-16T17:20:27.819Z,22.10
2018-12-16T17:22:56.048Z,22.03
2018-12-16T17:25:23.518Z,23.53
2018-12-16T17:27:50.992Z,20.13
2018-12-16T17:30:18.443Z,24.57
2018-12-16T17:32:45.941Z,16.33
2018-12-16T17:35:13.422Z,14.83
2018-12-16T17:37:41.657Z,24.90
2018-12-16T17:40:09.132Z,22.90
2018-12-16T17:42:36.606Z,24.37
2018-12-16T17:45:04.074Z,24.47
2018-12-16T17:47:32.327Z,26.50
2018-12-16T17:49:59.804Z,20.07
2018-12-16T17:52:28.029Z,23.40
2018-12-16T17:54:55.494Z,18.20
2018-12-16T17:57:23.007Z,17.60
2018-12-16T17:59:50.494Z,28.03
2018-12-16T18:02:18.703Z,28.93
2018-12-16T18:04:46.221Z,25.07
2018-12-16T18:07:13.781Z,21.00
2018-12-16T18:09:42.040Z,19.77
2018-12-16T18:12:09.539Z,28.75
2018-12-16T18:14:37.777Z,29.83
2018-12-16T18:17:05.226Z,27.77
2018-12-16T18:19:32.707Z,22.40
2018-12-16T18:22:01.415Z,31.47
2018-12-16T18:24:28.398Z,24.17
2018-12-16T18:26:56.612Z,18.12
2018-12-16T18:29:24.083Z,24.67
2018-12-16T18:31:51.544Z,31.63
2018-12-16T18:34:19.001Z,21.47
2018-12-16T18:36:46.536Z,22.73
2018-12-16T18:39:14.252Z,22.93
2018-12-16T18:41:41.710Z,21.20
2018-12-16T18:44:09.161Z,25.60
2018-12-16T18:46:36.629Z,22.77
2018-12-16T18:49:04.086Z,26.00
2018-12-16T18:51:31.547Z,22.00
2018-12-16T18:53:59.115Z,24.67
2018-12-16T18:56:26.682Z,19.83
2018-12-16T18:58:54.148Z,24.87
2018-12-16T19:01:21.611Z,25.10
2018-12-16T19:03:49.170Z,19.30
2018-12-16T19:06:16.746Z,25.25
2018-12-16T19:08:44.739Z,22.70
2018-12-16T19:11:12.979Z,22.13
2018-12-16T19:13:40.450Z,20.20
2018-12-16T19:16:08.018Z,19.07
2018-12-16T19:18:36.253Z,23.37
2018-12-16T19:21:04.662Z,21.33
2018-12-16T19:23:32.123Z,16.27
2018-12-16T19:25:59.590Z,19.70
2018-12-16T19:28:27.168Z,17.67
2018-12-16T19:30:54.638Z,17.30
2018-12-16T19:33:22.189Z,26.27
2018-12-16T19:35:49.754Z,20.10
2018-12-16T19:38:17.225Z,21.60
2018-12-16T19:40:44.786Z,17.90
2018-12-16T19:43:13.172Z,24.00
2018-12-16T19:45:40.737Z,17.93
2018-12-16T19:48:08.286Z,21.63
2018-12-16T19:50:35.758Z,21.73
2018-12-16T19:53:04.522Z,24.83
2018-12-16T19:55:32.006Z,19.97
2018-12-16T19:57:59.577Z,21.57
2018-12-16T20:00:27.131Z,20.63
2018-12-16T20:02:54.654Z,25.57
2018-12-16T20:05:23.569Z,23.70
2018-12-16T20:07:49.634Z,22.40
2018-12-16T20:10:17.104Z,25.50
2018-12-16T20:12:44.653Z,20.20
2018-12-16T20:15:12.222Z,22.00
2018-12-16T20:17:39.787Z,21.03
2018-12-16T20:20:07.399Z,20.00
2018-12-16T20:22:34.852Z,21.37
2018-12-16T20:25:02.485Z,19.67
2018-12-16T20:27:30.033Z,19.60
2018-12-16T20:29:57.515Z,17.27
2018-12-16T20:32:25.058Z,18.57
2018-12-16T20:34:52.625Z,23.23
2018-12-16T20:37:20.196Z,17.93
2018-12-16T20:39:47.677Z,19.57
2018-12-16T20:42:15.386Z,16.13
2018-12-16T20:44:42.852Z,19.30
2018-12-16T20:47:10.305Z,16.20
2018-12-16T20:49:37.762Z,16.50
2018-12-16T20:52:05.273Z,20.07
2018-12-16T20:54:32.834Z,21.83
2018-12-16T20:57:00.298Z,19.80
2018-12-16T20:59:27.748Z,19.93
2018-12-16T21:01:55.330Z,21.97
2018-12-16T21:04:22.787Z,19.07
2018-12-16T21:06:50.241Z,22.30
2018-12-16T21:09:17.722Z,18.13
2018-12-16T21:11:51.803Z,20.87
2018-12-16T21:14:24.994Z,23.60
2018-12-16T21:19:48.941Z,32.25
2018-12-16T21:22:16.409Z,28.00
2018-12-16T21:24:43.928Z,27.93
2018-12-16T21:27:11.390Z,19.63
2018-12-16T21:29:39.667Z,23.37
2018-12-16T21:32:07.467Z,27.97
2018-12-16T21:34:35.481Z,29.33
2018-12-16T21:37:04.644Z,28.50
2018-12-16T21:39:32.886Z,28.43
2018-12-16T21:42:00.459Z,27.70
2018-12-16T21:44:28.017Z,23.77
2018-12-16T21:49:29.526Z,28.67
2018-12-16T21:51:57.056Z,32.70
2018-12-16T21:54:24.518Z,23.80
2018-12-16T21:56:52.089Z,25.43
2018-12-16T21:59:19.656Z,25.77
2018-12-16T22:01:47.203Z,29.07
2018-12-16T22:04:14.670Z,25.83
2018-12-16T22:06:42.127Z,26.40
2018-12-16T22:09:11.851Z,31.23
2018-12-16T22:11:39.079Z,39.70
2018-12-16T22:14:06.662Z,30.37
2018-12-16T22:16:34.890Z,26.90
2018-12-16T22:19:02.350Z,21.83
2018-12-16T22:21:30.065Z,24.93
2018-12-16T22:23:57.634Z,22.73
2018-12-16T22:26:25.080Z,18.73
2018-12-16T22:28:52.574Z,21.40
2018-12-16T22:31:20.123Z,22.93
2018-12-16T22:33:47.583Z,15.93
2018-12-16T22:36:15.064Z,24.10
2018-12-16T22:38:42.613Z,19.40
2018-12-16T22:41:10.093Z,19.37
2018-12-16T22:43:38.317Z,19.67
2018-12-16T22:46:05.794Z,20.97
2018-12-16T22:48:33.269Z,20.27
2018-12-16T22:51:01.417Z,20.90
2018-12-16T22:53:28.914Z,21.53
2018-12-16T22:55:56.392Z,22.33
2018-12-16T22:58:23.847Z,19.33
2018-12-16T23:00:56.927Z,20.87
2018-12-16T23:03:24.369Z,16.17
2018-12-16T23:05:51.833Z,17.90
2018-12-16T23:08:19.280Z,19.17
2018-12-16T23:10:46.827Z,23.57
2018-12-16T23:13:14.336Z,17.13
2018-12-16T23:15:41.789Z,22.80
2018-12-16T23:18:09.365Z,20.03
2018-12-16T23:20:36.839Z,25.27
2018-12-16T23:23:04.299Z,18.63
2018-12-16T23:25:31.769Z,22.10
2018-12-16T23:27:59.991Z,25.13
2018-12-16T23:30:27.441Z,19.60
2018-12-16T23:32:55.599Z,18.30
2018-12-16T23:35:23.998Z,26.20
2018-12-16T23:37:51.445Z,24.83
2018-12-16T23:40:19.693Z,17.17
2018-12-16T23:42:47.155Z,22.33
2018-12-16T23:45:14.624Z,19.97
2018-12-16T23:47:42.178Z,20.97
2018-12-16T23:50:09.641Z,20.17
2018-12-16T23:52:37.167Z,18.77
2018-12-16T23:55:05.345Z,20.48
2018-12-16T23:57:32.832Z,18.63
